createdAt,value
2022-08-29T00:04:48.419Z,616
2022-08-29T00:10:07.171Z,624
2022-08-29T00:15:25.659Z,595
2022-08-29T00:20:44.418Z,582
2022-08-29T00:26:03.216Z,597
2022-08-29T00:31:21.511Z,612
2022-08-29T00:36:39.875Z,584
2022-08-29T00:41:58.070Z,590
2022-08-29T00:47:17.771Z,599
2022-08-29T00:52:36.577Z,568
2022-08-29T00:57:55.329Z,545
2022-08-29T01:03:13.832Z,529
2022-08-29T01:08:31.760Z,508
2022-08-29T01:13:50.523Z,510
2022-08-29T01:19:08.973Z,502
2022-08-29T01:24:27.776Z,496
2022-08-29T01:29:46.249Z,501
2022-08-29T01:35:04.997Z,504
2022-08-29T01:40:23.823Z,520
2022-08-29T01:45:42.099Z,530
2022-08-29T01:51:00.487Z,551
2022-08-29T01:56:18.970Z,556
2022-08-29T02:01:37.805Z,540
2022-08-29T02:06:56.020Z,524
2022-08-29T02:12:14.518Z,528
2022-08-29T02:17:32.689Z,530
2022-08-29T02:22:51.216Z,532
2022-08-29T02:28:09.389Z,527
2022-08-29T02:33:28.105Z,536
2022-08-29T02:38:47.104Z,526
2022-08-29T02:43:49.962Z,530
2022-08-29T02:49:08.454Z,525
2022-08-29T02:54:26.933Z,525
2022-08-29T02:59:45.416Z,531
2022-08-29T03:05:03.901Z,530
2022-08-29T03:10:22.685Z,528
2022-08-29T03:15:41.151Z,530
2022-08-29T03:20:59.637Z,518
2022-08-29T03:26:18.398Z,513
2022-08-29T03:31:36.966Z,525
2022-08-29T03:36:55.481Z,529
2022-08-29T03:42:13.980Z,539
2022-08-29T03:47:32.460Z,526
2022-08-29T03:52:50.964Z,517
2022-08-29T03:58:09.425Z,512
2022-08-29T04:03:31.273Z,500
2022-08-29T04:08:50.258Z,508
2022-08-29T04:14:09.032Z,510
2022-08-29T04:19:27.540Z,520
2022-08-29T04:24:45.708Z,517
2022-08-29T04:30:04.192Z,515
2022-08-29T04:35:22.395Z,522
2022-08-29T04:40:41.263Z,505
2022-08-29T04:45:59.764Z,494
2022-08-29T04:51:18.096Z,502
2022-08-29T04:56:36.607Z,499
2022-08-29T05:01:55.137Z,497
2022-08-29T05:07:13.306Z,530
2022-08-29T05:12:31.808Z,540
2022-08-29T05:17:49.996Z,516
2022-08-29T05:23:08.481Z,514
2022-08-29T05:28:26.938Z,505
2022-08-29T05:33:45.697Z,504
2022-08-29T05:39:04.173Z,521
2022-08-29T05:44:22.618Z,498
2022-08-29T05:49:40.819Z,494
2022-08-29T05:54:59.593Z,507
2022-08-29T06:00:17.532Z,508
2022-08-29T06:05:36.022Z,503
2022-08-29T06:10:54.228Z,498
2022-08-29T06:16:12.719Z,491
2022-08-29T06:21:31.276Z,484
2022-08-29T06:26:50.026Z,479
2022-08-29T06:32:08.488Z,478
2022-08-29T06:37:27.235Z,474
2022-08-29T06:42:45.443Z,463
2022-08-29T06:48:03.929Z,453
2022-08-29T06:53:27.686Z,446
2022-08-29T06:58:55.081Z,454
2022-08-29T07:04:14.553Z,446
2022-08-29T07:09:33.053Z,442
2022-08-29T07:14:52.376Z,443
2022-08-29T07:20:12.563Z,443
2022-08-29T07:25:30.854Z,445
2022-08-29T07:30:49.348Z,451
2022-08-29T07:36:07.659Z,464
2022-08-29T07:41:26.410Z,471
2022-08-29T07:46:44.360Z,475
2022-08-29T07:52:02.535Z,480
2022-08-29T07:57:20.450Z,478
2022-08-29T08:02:39.031Z,461
2022-08-29T08:08:00.122Z,449
2022-08-29T08:13:33.447Z,440
2022-08-29T08:18:51.922Z,434
2022-08-29T08:24:10.417Z,429
2022-08-29T08:29:28.870Z,424
2022-08-29T08:34:47.072Z,419
2022-08-29T08:40:05.658Z,418
2022-08-29T08:45:24.118Z,428
2022-08-29T08:50:42.607Z,428
2022-08-29T08:56:01.103Z,425
2022-08-29T09:01:19.561Z,429
2022-08-29T09:06:38.052Z,423
2022-08-29T09:11:56.827Z,417
2022-08-29T09:17:15.302Z,417
2022-08-29T09:22:33.797Z,415
2022-08-29T09:27:52.529Z,412
2022-08-29T09:33:11.354Z,404
2022-08-29T09:38:29.902Z,398
2022-08-29T09:43:47.826Z,399
2022-08-29T09:49:08.609Z,402
2022-08-29T09:54:27.091Z,404
2022-08-29T09:59:45.862Z,405
2022-08-29T10:05:08.526Z,401
2022-08-29T10:10:31.487Z,400
2022-08-29T10:15:51.132Z,403
2022-08-29T10:21:09.769Z,401
2022-08-29T10:26:28.452Z,400
2022-08-29T10:31:46.719Z,405
2022-08-29T10:37:05.142Z,406
2022-08-29T10:42:23.585Z,406
2022-08-29T10:47:42.334Z,415
2022-08-29T10:53:01.097Z,418
2022-08-29T10:58:19.612Z,416
2022-08-29T11:03:38.099Z,419
2022-08-29T11:08:56.284Z,422
2022-08-29T11:14:15.048Z,422
2022-08-29T11:19:33.822Z,419
2022-08-29T11:24:52.587Z,427
2022-08-29T11:30:11.101Z,438
2022-08-29T11:35:30.912Z,443
2022-08-29T11:41:26.206Z,451
2022-08-29T11:46:49.098Z,451
2022-08-29T11:52:16.712Z,449
2022-08-29T11:57:40.229Z,430
2022-08-29T12:02:58.400Z,412
2022-08-29T12:08:35.876Z,404
2022-08-29T12:13:55.925Z,400
2022-08-29T12:19:14.400Z,396
2022-08-29T12:24:32.614Z,390
2022-08-29T12:29:51.349Z,390
2022-08-29T12:35:09.825Z,392
2022-08-29T12:40:32.801Z,391
2022-08-29T12:45:51.326Z,391
2022-08-29T12:51:09.799Z,394
2022-08-29T12:56:28.297Z,393
2022-08-29T13:01:46.487Z,396
2022-08-29T13:07:04.780Z,394
2022-08-29T13:12:23.267Z,388
2022-08-29T13:17:41.755Z,387
2022-08-29T13:23:00.510Z,387
2022-08-29T13:28:19.016Z,386
2022-08-29T13:33:37.446Z,402
2022-08-29T13:38:55.910Z,398
2022-08-29T13:44:14.384Z,394
2022-08-29T13:49:36.120Z,388
2022-08-29T13:54:54.046Z,388
2022-08-29T14:00:12.532Z,394
2022-08-29T14:05:31.046Z,396
2022-08-29T14:10:33.596Z,516
2022-08-29T14:15:52.416Z,485
2022-08-29T14:21:10.437Z,438
2022-08-29T14:26:29.227Z,425
2022-08-29T14:31:47.398Z,417
2022-08-29T14:37:05.902Z,418
2022-08-29T14:42:24.667Z,430
2022-08-29T14:47:43.117Z,440
2022-08-29T14:53:01.905Z,443
2022-08-29T14:58:20.647Z,444
2022-08-29T15:03:39.131Z,440
2022-08-29T15:08:57.578Z,446
2022-08-29T15:14:16.359Z,489
2022-08-29T15:20:18.034Z,490
2022-08-29T15:25:56.984Z,488
2022-08-29T15:31:15.231Z,485
2022-08-29T15:36:33.753Z,478
2022-08-29T15:41:51.929Z,475
2022-08-29T15:47:10.494Z,481
2022-08-29T15:52:31.236Z,482
2022-08-29T15:57:52.073Z,486
2022-08-29T16:03:11.459Z,500
2022-08-29T16:08:29.991Z,546
2022-08-29T16:13:48.694Z,541
2022-08-29T16:19:15.650Z,543
2022-08-29T16:24:34.422Z,542
2022-08-29T16:29:53.228Z,500
2022-08-29T16:35:11.681Z,468
2022-08-29T16:40:30.509Z,460
2022-08-29T16:45:49.426Z,455
2022-08-29T16:51:07.873Z,460
2022-08-29T16:56:26.794Z,470
2022-08-29T17:01:45.557Z,485
2022-08-29T17:07:04.514Z,508
2022-08-29T17:12:23.275Z,494
2022-08-29T17:17:42.698Z,493
2022-08-29T17:23:00.877Z,507
2022-08-29T17:28:19.226Z,506
2022-08-29T17:33:37.352Z,509
2022-08-29T17:38:56.095Z,507
2022-08-29T17:44:15.152Z,510
2022-08-29T17:49:33.644Z,502
2022-08-29T17:54:52.134Z,503
2022-08-29T18:00:10.868Z,510
2022-08-29T18:05:29.621Z,510
2022-08-29T18:10:48.096Z,522
2022-08-29T18:16:06.708Z,511
2022-08-29T18:21:25.348Z,503
2022-08-29T18:26:43.841Z,493
2022-08-29T18:32:02.335Z,496
2022-08-29T18:37:20.839Z,492
2022-08-29T18:42:41.162Z,493
2022-08-29T18:48:00.153Z,496
2022-08-29T18:53:18.890Z,496
2022-08-29T18:58:37.383Z,510
2022-08-29T19:03:55.603Z,523
2022-08-29T19:09:14.366Z,532
2022-08-29T19:14:32.826Z,530
2022-08-29T19:20:03.632Z,548
2022-08-29T19:25:30.669Z,542
2022-08-29T19:30:49.409Z,540
2022-08-29T19:36:07.882Z,531
2022-08-29T19:41:26.623Z,532
2022-08-29T19:46:49.157Z,542
2022-08-29T19:52:08.007Z,567
2022-08-29T19:57:28.305Z,558
2022-08-29T20:02:46.787Z,560
2022-08-29T20:08:06.484Z,548
2022-08-29T20:13:28.346Z,534
2022-08-29T20:18:54.057Z,535
2022-08-29T20:24:15.657Z,541
2022-08-29T20:34:53.998Z,571
2022-08-29T20:40:12.514Z,541
2022-08-29T20:45:31.266Z,519
2022-08-29T20:50:49.429Z,505
2022-08-29T20:56:07.908Z,495
2022-08-29T21:01:26.715Z,491
2022-08-29T21:06:45.375Z,484
2022-08-29T21:12:03.876Z,477
2022-08-29T21:17:22.061Z,467
2022-08-29T21:22:40.763Z,458
2022-08-29T21:27:59.483Z,459
2022-08-29T21:33:18.633Z,461
2022-08-29T21:38:36.529Z,460
2022-08-29T21:43:54.967Z,456
2022-08-29T21:49:13.458Z,446
2022-08-29T21:54:31.963Z,452
2022-08-29T21:59:50.696Z,457
2022-08-29T22:05:09.221Z,461
2022-08-29T22:10:27.985Z,478
2022-08-29T22:15:31.134Z,486
2022-08-29T22:20:49.641Z,488
2022-08-29T22:26:13.923Z,474
2022-08-29T22:31:32.724Z,481
2022-08-29T22:36:35.757Z,485
2022-08-29T22:41:54.521Z,491
2022-08-29T22:47:13.007Z,509
2022-08-29T22:52:15.865Z,504
2022-08-29T22:57:34.671Z,496
2022-08-29T23:02:53.488Z,493
2022-08-29T23:08:11.883Z,495
2022-08-29T23:13:30.114Z,501
2022-08-29T23:18:49.600Z,510
2022-08-29T23:24:08.375Z,513
2022-08-29T23:29:27.129Z,544
2022-08-29T23:34:45.622Z,545
2022-08-29T23:40:04.117Z,571
2022-08-29T23:45:23.132Z,524
2022-08-29T23:50:41.332Z,540
2022-08-29T23:56:06.648Z,521
